Wellsburg, North Dakota
Current Conditions -  °F | °C
As of 8:15 AM on Saturday 22 Nov 2014 (Local Time) from K5H4 Reporting Station
Clear Clear  
Wind Chill:   Ceiling: Unl
Heat Index: 18°   Visibility: 10mi
Dew Point: 18°   Wind: 7mph
Humidity: 100%   Direction: 110°ESE
Pressure: 29.51"   Gusts: NA
Location:  47.7822°N, 99.8441°W
Report Text: K5H4 221415Z AUTO 11006KT 10SM CLR M08/M08 A2951 RMK AO2
Loading
Personal Weather Stations






























Interactive Weather Map New forecast layout! Learn more

10-Day Weather Forecast

Advertisements
Track Severe Weather on mobile